Time;durP1;ratioP1;P1;durP2;ratioP2;P2;SDS_P1;SDS_P2;PMS_P1;PMS_P2;Temp;Humidity;BMP_temperature;BMP_pressure;BME280_temperature;BME280_humidity;BME280_pressure;Samples;Min_cycle;Max_cycle;Signal;HPM_P1;HPM_P2
2023/07/30 00:00:57;;;;;;;31.77;15.43;;;;;;;16.47;81.16;98639.59;4943126;28;20137;-87
2023/07/30 00:03:23;;;;;;;27.15;15.10;;;;;;;16.53;80.20;98594.78;4944021;28;20193;-87
2023/07/30 00:05:53;;;;;;;26.27;14.30;;;;;;;16.88;79.90;98643.44;4950753;28;20039;-87
2023/07/30 00:08:20;;;;;;;28.77;12.85;;;;;;;17.21;78.78;98630.88;4924467;28;20034;-87
2023/07/30 00:10:46;;;;;;;25.20;13.15;;;;;;;17.28;78.47;98650.31;4944020;28;20492;-87
2023/07/30 00:13:12;;;;;;;23.60;12.10;;;;;;;17.35;78.36;98631.88;4927798;28;20034;-87
2023/07/30 00:15:37;;;;;;;24.40;12.43;;;;;;;17.24;78.73;98635.66;4959107;28;20041;-87
2023/07/30 00:18:03;;;;;;;25.25;11.60;;;;;;;17.53;77.55;98640.38;4925593;28;20081;-87
2023/07/30 00:20:29;;;;;;;25.42;11.55;;;;;;;17.60;77.74;98647.97;4949573;28;20038;-87
2023/07/30 00:22:55;;;;;;;26.23;12.02;;;;;;;17.41;78.27;98635.09;4933309;28;20448;-88
2023/07/30 00:25:22;;;;;;;22.80;12.40;;;;;;;17.43;78.26;98643.81;4958411;28;20089;-87
2023/07/30 00:27:48;;;;;;;25.73;12.48;;;;;;;17.34;78.19;98641.31;4943848;28;20126;-88
2023/07/30 00:30:14;;;;;;;20.95;11.57;;;;;;;17.55;77.86;98638.06;4950060;28;20412;-88
2023/07/30 00:32:43;;;;;;;24.80;11.13;;;;;;;17.44;77.15;98626.06;4936009;28;20159;-87
2023/07/30 00:35:12;;;;;;;21.92;11.18;;;;;;;17.50;77.63;98623.78;4930060;28;20066;-88
2023/07/30 00:37:38;;;;;;;29.38;10.55;;;;;;;17.63;76.60;98630.63;4945087;28;20043;-87
2023/07/30 00:40:05;;;;;;;20.70;10.53;;;;;;;17.49;76.71;98630.47;4980141;28;20065;-89
2023/07/30 00:42:31;;;;;;;24.42;11.05;;;;;;;17.45;77.08;98627.66;4929560;28;20054;-87
2023/07/30 00:44:57;;;;;;;18.73;10.37;;;;;;;17.46;76.81;98620.97;4964302;28;20571;-87
2023/07/30 00:47:24;;;;;;;23.43;10.67;;;;;;;17.59;76.79;98627.84;4963471;28;20282;-87
2023/07/30 00:49:50;;;;;;;19.35;10.40;;;;;;;17.44;77.17;98639.09;4970408;28;20289;-88
2023/07/30 00:52:18;;;;;;;21.95;10.50;;;;;;;17.48;77.35;98635.22;4947248;28;20050;-87
2023/07/30 00:54:45;;;;;;;24.77;10.30;;;;;;;17.51;76.88;98628.91;4939049;28;20034;-86
2023/07/30 00:57:11;;;;;;;23.10;10.80;;;;;;;17.41;77.70;98654.44;4974864;28;20285;-89
2023/07/30 00:59:38;;;;;;;27.45;10.70;;;;;;;17.30;78.37;98631.41;4940944;28;20042;-88
2023/07/30 01:02:04;;;;;;;20.60;10.60;;;;;;;17.29;77.54;98627.84;4942470;28;20085;-88
2023/07/30 01:04:30;;;;;;;21.13;10.02;;;;;;;17.21;77.41;98628.91;4954228;28;20035;-89
2023/07/30 01:06:56;;;;;;;23.70;9.67;;;;;;;17.21;78.37;98626.16;4941872;28;20097;-89
2023/07/30 01:09:23;;;;;;;23.03;9.03;;;;;;;17.14;77.95;98629.63;4944392;28;20046;-88
2023/07/30 01:11:49;;;;;;;17.60;9.35;;;;;;;17.20;77.09;98607.22;4953518;28;20458;-88
2023/07/30 01:14:16;;;;;;;17.52;9.43;;;;;;;17.20;76.75;98619.03;4957621;28;20053;-87
2023/07/30 01:16:42;;;;;;;19.40;9.45;;;;;;;17.23;77.56;98623.81;4961857;28;20404;-88
2023/07/30 01:19:09;;;;;;;16.30;9.40;;;;;;;17.04;77.37;98602.66;4923751;28;20054;-88
2023/07/30 01:21:36;;;;;;;22.00;9.55;;;;;;;16.93;77.02;98598.97;4951264;28;20038;-88
2023/07/30 01:24:02;;;;;;;;;;;;;;;17.11;77.26;98641.41;4930920;28;20045;-89
2023/07/30 01:26:43;;;;;;;14.23;9.23;;;;;;;17.10;77.13;98637.06;4926461;28;19975;-89
2023/07/30 01:29:51;;;;;;;22.25;8.98;;;;;;;17.12;77.95;98636.72;4949498;28;20155;-89
2023/07/30 01:32:24;;;;;;;18.05;9.25;;;;;;;16.90;77.42;98633.63;4913995;28;20038;-89
2023/07/30 01:34:53;;;;;;;16.48;9.60;;;;;;;16.88;77.64;98635.16;4967117;28;20046;-89
2023/07/30 01:37:20;;;;;;;18.20;9.05;;;;;;;16.53;79.00;98616.84;4933948;28;20042;-88
2023/07/30 01:39:48;;;;;;;16.10;8.63;;;;;;;16.79;78.57;98626.34;4952154;28;20101;-90
2023/07/30 01:42:15;;;;;;;21.27;9.25;;;;;;;17.02;78.43;98638.13;4915467;28;20042;-91
2023/07/30 01:44:41;;;;;;;18.88;8.75;;;;;;;17.02;76.76;98612.47;4937685;28;20064;-90
2023/07/30 01:47:07;;;;;;;21.23;9.00;;;;;;;16.86;77.39;98610.69;4946841;28;20542;-89
2023/07/30 01:49:33;;;;;;;15.52;8.68;;;;;;;16.90;77.71;98638.34;4951274;28;20505;-89
2023/07/30 01:51:59;;;;;;;14.05;8.45;;;;;;;16.75;78.00;98626.28;4933873;28;20042;-89
2023/07/30 01:54:26;;;;;;;22.87;9.90;;;;;;;16.88;78.10;98626.88;4942429;28;20042;-90
2023/07/30 01:56:54;;;;;;;20.60;9.63;;;;;;;16.67;78.27;98619.84;4959612;28;20045;-88
2023/07/30 01:59:20;;;;;;;17.50;9.57;;;;;;;16.83;78.56;98646.53;4918353;28;20129;-89
2023/07/30 02:01:46;;;;;;;20.80;9.33;;;;;;;16.74;78.26;98624.66;4931781;28;20129;-89
2023/07/30 02:04:12;;;;;;;19.60;9.40;;;;;;;16.72;78.01;98604.94;4931060;28;20077;-89
2023/07/30 02:06:38;;;;;;;16.23;8.90;;;;;;;16.79;78.21;98621.63;4937248;28;20060;-89
2023/07/30 02:09:04;;;;;;;14.45;8.65;;;;;;;16.95;78.40;98615.13;4944155;28;20057;-89
2023/07/30 02:11:30;;;;;;;12.85;8.57;;;;;;;17.03;77.68;98634.19;4909637;28;20074;-89
2023/07/30 02:13:56;;;;;;;14.18;8.73;;;;;;;16.97;77.40;98616.38;4949575;28;20062;-90
2023/07/30 02:16:22;;;;;;;16.55;9.07;;;;;;;16.78;76.91;98605.44;4930278;28;20041;-89
2023/07/30 02:18:48;;;;;;;16.75;9.20;;;;;;;16.81;77.80;98629.53;4949362;28;20390;-89
2023/07/30 02:21:14;;;;;;;17.97;9.20;;;;;;;16.78;78.20;98628.31;4958931;28;20041;-89
2023/07/30 02:23:40;;;;;;;15.00;9.03;;;;;;;16.79;77.82;98629.91;4961319;28;20074;-89
2023/07/30 02:26:06;;;;;;;19.27;8.73;;;;;;;16.86;77.34;98612.66;4977255;28;20116;-88
2023/07/30 02:28:32;;;;;;;17.23;9.13;;;;;;;16.98;77.68;98628.19;4976016;28;20130;-88
2023/07/30 02:30:58;;;;;;;14.97;8.77;;;;;;;16.83;77.44;98610.63;4959131;28;20039;-88
2023/07/30 02:33:24;;;;;;;19.70;8.73;;;;;;;16.99;77.94;98624.28;4976703;28;20042;-89
2023/07/30 02:35:50;;;;;;;14.27;9.00;;;;;;;16.89;76.94;98598.91;4976625;28;20507;-88
2023/07/30 02:38:16;;;;;;;15.80;7.17;;;;;;;17.57;77.09;98651.50;4960551;28;20047;-88
2023/07/30 02:40:42;;;;;;;16.83;7.88;;;;;;;17.61;77.07;98630.22;4977366;28;20046;-89
2023/07/30 02:43:08;;;;;;;22.05;8.93;;;;;;;17.72;74.73;98628.38;4958841;28;20533;-89
2023/07/30 02:45:33;;;;;;;14.00;7.80;;;;;;;18.08;74.30;98643.44;4958926;28;20035;-88
2023/07/30 02:47:59;;;;;;;19.10;9.73;;;;;;;17.61;74.04;98611.69;4960152;28;20411;-88
2023/07/30 02:50:25;;;;;;;14.33;9.17;;;;;;;17.98;73.85;98649.63;4973845;28;20043;-88
2023/07/30 02:52:51;;;;;;;14.87;7.20;;;;;;;18.28;73.65;98634.94;4975416;28;20042;-89
2023/07/30 02:55:18;;;;;;;20.30;9.82;;;;;;;18.26;72.71;98628.97;4946859;28;20408;-89
2023/07/30 02:57:44;;;;;;;18.02;10.00;;;;;;;18.45;72.65;98650.88;4979461;28;20053;-92
2023/07/30 03:00:12;;;;;;;21.02;9.48;;;;;;;18.51;72.11;98654.91;4963195;28;20100;-90
2023/07/30 03:02:39;;;;;;;;;;;;;;;18.53;72.17;98660.81;4946512;28;20042;-88
2023/07/30 03:05:05;;;;;;;;;;;;;;;18.65;71.18;98659.75;4980869;28;19928;-88
2023/07/30 03:07:31;;;;;;;18.83;8.60;;;;;;;18.43;72.15;98647.69;4960083;28;19929;-88
2023/07/30 03:09:57;;;;;;;18.07;10.37;;;;;;;18.29;71.92;98653.09;4993918;28;20045;-91
2023/07/30 03:12:23;;;;;;;18.00;9.73;;;;;;;18.28;72.02;98654.28;4960857;28;20049;-90
2023/07/30 03:14:49;;;;;;;15.97;8.03;;;;;;;18.42;72.64;98640.56;4941849;28;20038;-91
2023/07/30 03:17:15;;;;;;;15.23;7.80;;;;;;;18.38;72.68;98631.47;4976209;28;20038;-89
2023/07/30 03:19:41;;;;;;;16.40;9.53;;;;;;;18.55;71.57;98635.56;4940526;28;20054;-90
2023/07/30 03:22:07;;;;;;;14.45;8.73;;;;;;;18.78;70.66;98654.75;4942567;28;20046;-89
2023/07/30 03:24:33;;;;;;;13.43;7.83;;;;;;;18.84;71.27;98653.22;4958948;28;20397;-90
2023/07/30 03:26:59;;;;;;;24.37;10.07;;;;;;;18.87;70.52;98655.19;4943159;28;20055;-93
2023/07/30 03:29:27;;;;;;;18.05;8.27;;;;;;;18.82;70.53;98650.03;4943090;28;20298;-91
2023/07/30 03:31:53;;;;;;;13.63;8.13;;;;;;;18.96;69.18;98657.63;4926379;28;20057;-90
2023/07/30 03:34:19;;;;;;;24.67;9.43;;;;;;;18.75;70.04;98667.38;4941820;28;20035;-91
2023/07/30 03:36:45;;;;;;;10.00;7.07;;;;;;;18.91;70.84;98661.56;4959805;28;20047;-90
2023/07/30 03:39:12;;;;;;;16.60;8.47;;;;;;;18.89;70.25;98665.91;4958884;28;20066;-92
2023/07/30 03:41:38;;;;;;;12.77;8.30;;;;;;;18.96;69.00;98658.44;4954161;28;20054;-90
2023/07/30 03:44:04;;;;;;;15.83;8.33;;;;;;;18.87;68.31;98657.97;4944964;28;20034;-90
2023/07/30 03:46:30;;;;;;;14.43;8.57;;;;;;;18.76;69.93;98654.31;4961948;28;20049;-94
2023/07/30 03:48:56;;;;;;;15.67;7.87;;;;;;;19.44;68.84;98666.66;4961716;28;20301;-92
2023/07/30 03:51:22;;;;;;;14.50;8.60;;;;;;;19.25;66.59;98666.94;4977490;28;20298;-91
2023/07/30 03:53:49;;;;;;;17.33;8.30;;;;;;;19.01;68.31;98669.16;4946313;28;20053;-90
2023/07/30 03:56:15;;;;;;;18.37;8.50;;;;;;;19.04;68.52;98686.16;4978989;28;20084;-90
2023/07/30 03:58:41;;;;;;;18.27;7.07;;;;;;;19.28;68.21;98665.38;4947502;28;20305;-90
2023/07/30 04:01:08;;;;;;;15.93;7.77;;;;;;;19.48;66.90;98691.63;4983502;28;20041;-90
2023/07/30 04:03:34;;;;;;;14.23;7.50;;;;;;;19.60;67.72;98669.09;4980194;28;20321;-91
2023/07/30 04:06:01;;;;;;;19.40;8.00;;;;;;;19.57;65.76;98691.25;4948170;28;20043;-89
2023/07/30 04:08:27;;;;;;;18.98;7.45;;;;;;;19.86;66.09;98697.75;4995488;28;20038;-91
2023/07/30 04:10:53;;;;;;;12.47;7.63;;;;;;;19.69;65.74;98663.22;4960871;28;20069;-90
2023/07/30 04:13:19;;;;;;;12.37;7.80;;;;;;;19.79;64.66;98672.75;4960958;28;20496;-89
2023/07/30 04:15:47;;;;;;;13.33;7.60;;;;;;;19.55;65.19;98675.00;4945029;28;20284;-90
2023/07/30 04:18:13;;;;;;;14.60;7.30;;;;;;;19.76;66.55;98690.97;4944494;28;20042;-89
2023/07/30 04:20:39;;;;;;;10.57;6.55;;;;;;;19.99;65.38;98684.31;4996100;28;20046;-89
2023/07/30 04:23:05;;;;;;;15.75;7.68;;;;;;;19.78;65.16;98677.53;4981813;28;20034;-89
2023/07/30 04:25:31;;;;;;;11.77;6.87;;;;;;;19.83;64.80;98684.66;4979478;28;20077;-91
2023/07/30 04:27:57;;;;;;;13.63;7.60;;;;;;;20.21;65.14;98699.84;4978293;28;20046;-90
2023/07/30 04:30:24;;;;;;;11.45;6.50;;;;;;;20.03;65.51;98665.69;4947790;28;20286;-90
2023/07/30 04:32:50;;;;;;;12.13;6.80;;;;;;;20.27;64.06;98703.06;4942840;29;20062;-90
2023/07/30 04:35:16;;;;;;;13.40;7.50;;;;;;;20.07;65.48;98683.19;4926709;29;20505;-90
2023/07/30 04:37:42;;;;;;;13.82;6.68;;;;;;;20.09;65.09;98694.66;4957909;29;20051;-88
2023/07/30 04:40:09;;;;;;;16.50;7.13;;;;;;;19.99;64.91;98699.00;4941859;29;20047;-90
2023/07/30 04:42:35;;;;;;;17.27;6.20;;;;;;;20.10;65.64;98712.91;4959583;29;20041;-90
2023/07/30 04:45:02;;;;;;;19.20;7.43;;;;;;;20.24;64.21;98701.84;4958072;29;20055;-90
2023/07/30 04:47:30;;;;;;;16.40;7.53;;;;;;;20.20;62.97;98703.81;4961583;28;20086;-89
2023/07/30 04:49:56;;;;;;;13.35;6.60;;;;;;;20.15;63.69;98699.44;4977902;28;20039;-91
2023/07/30 04:52:22;;;;;;;11.07;6.50;;;;;;;20.13;63.74;98703.78;4963491;28;20500;-90
2023/07/30 04:54:48;;;;;;;9.53;5.33;;;;;;;20.56;64.21;98717.78;4964560;28;20034;-92
2023/07/30 04:57:14;;;;;;;11.82;6.15;;;;;;;20.57;63.46;98699.97;4962694;28;20607;-90
2023/07/30 04:59:40;;;;;;;11.27;5.80;;;;;;;20.69;62.87;98718.19;4964129;28;20101;-89
2023/07/30 05:02:06;;;;;;;16.38;6.50;;;;;;;20.67;62.98;98718.63;4967763;28;20046;-89
2023/07/30 05:04:33;;;;;;;12.35;6.40;;;;;;;20.68;62.50;98730.50;4947157;28;20558;-88
2023/07/30 05:06:59;;;;;;;10.82;6.28;;;;;;;20.54;63.17;98717.41;4962760;28;20057;-90
2023/07/30 05:09:26;;;;;;;14.93;6.47;;;;;;;20.13;62.36;98699.06;4962863;28;20038;-89
2023/07/30 05:11:52;;;;;;;12.00;6.25;;;;;;;20.32;62.52;98741.50;4946264;28;20860;-92
2023/07/30 05:14:18;;;;;;;12.60;6.38;;;;;;;20.08;63.61;98729.94;4930533;28;20109;-88
2023/07/30 05:16:44;;;;;;;10.87;6.10;;;;;;;20.20;63.42;98714.94;4944809;28;20042;-91
2023/07/30 05:19:10;;;;;;;9.37;6.10;;;;;;;20.35;62.38;98722.09;4957271;28;20319;-92
2023/07/30 05:21:36;;;;;;;12.65;6.18;;;;;;;20.38;63.45;98732.41;4943085;29;20043;-91
2023/07/30 05:24:03;;;;;;;11.60;6.20;;;;;;;20.44;62.14;98734.81;4961434;29;20086;-91
2023/07/30 05:26:29;;;;;;;8.98;5.03;;;;;;;20.73;62.67;98719.00;4964381;28;20062;-92
2023/07/30 05:28:55;;;;;;;8.77;5.97;;;;;;;20.69;61.05;98746.75;4964282;29;20051;-91
2023/07/30 05:31:21;;;;;;;10.77;6.05;;;;;;;20.15;62.21;98701.41;4949116;29;20298;-93
2023/07/30 05:33:48;;;;;;;10.25;5.78;;;;;;;20.11;63.77;98697.84;4969735;28;20043;-91
2023/07/30 05:36:14;;;;;;;;;;;;;;;20.41;62.91;98739.16;4967666;28;20065;-92
2023/07/30 05:38:42;;;;;;;9.68;6.10;;;;;;;20.24;62.39;98721.28;4967062;28;19922;-92
2023/07/30 05:41:09;;;;;;;14.63;6.35;;;;;;;20.23;62.80;98696.66;4948803;28;20031;-95
2023/07/30 05:43:35;;;;;;;10.63;6.33;;;;;;;19.89;62.42;98696.97;4981587;28;20042;-91
2023/07/30 05:46:01;;;;;;;15.77;6.22;;;;;;;19.77;63.38;98708.41;4949119;28;20046;-93
2023/07/30 05:48:27;;;;;;;16.70;6.05;;;;;;;19.74;64.04;98717.53;4946798;29;20039;-91
2023/07/30 05:50:53;;;;;;;15.63;5.87;;;;;;;19.88;63.62;98710.06;4943901;29;20062;-91
2023/07/30 05:53:19;;;;;;;11.67;5.60;;;;;;;19.86;63.21;98701.31;4945304;29;20297;-93
2023/07/30 05:55:45;;;;;;;8.93;5.50;;;;;;;19.88;63.83;98695.38;4955756;28;20030;-90
2023/07/30 05:58:12;;;;;;;7.57;5.27;;;;;;;19.62;63.75;98697.22;4953014;28;20054;-95
2023/07/30 06:00:37;;;;;;;10.05;5.30;;;;;;;19.97;65.44;98708.88;4966612;28;20042;-93
2023/07/30 06:03:05;;;;;;;11.90;5.63;;;;;;;20.35;64.65;98727.63;4949140;28;20042;-90
2023/07/30 06:05:32;;;;;;;18.60;6.28;;;;;;;20.45;62.66;98706.63;4962702;29;20047;-92
2023/07/30 06:07:59;;;;;;;9.95;4.88;;;;;;;20.93;63.22;98719.44;4965607;28;20049;-91
2023/07/30 06:10:25;;;;;;;9.80;5.15;;;;;;;21.05;62.55;98705.13;4950334;28;20042;-91
2023/07/30 06:12:51;;;;;;;12.30;5.35;;;;;;;21.28;61.54;98716.59;4965800;28;20093;-92
2023/07/30 06:15:17;;;;;;;11.70;5.63;;;;;;;21.31;62.02;98715.81;4949685;28;20110;-92
2023/07/30 06:17:47;;;;;;;;;;;;;;;21.40;61.75;98732.09;4983145;28;20143;-91
2023/07/30 06:20:19;;;;;;;8.43;4.40;;;;;;;21.32;60.92;98692.38;4983121;28;19929;-91
2023/07/30 06:22:45;;;;;;;11.80;5.10;;;;;;;21.55;60.02;98691.94;4960709;28;20086;-90
2023/07/30 06:25:11;;;;;;;14.57;4.83;;;;;;;21.61;60.07;98728.47;4959194;28;20070;-91
2023/07/30 06:27:37;;;;;;;13.17;5.40;;;;;;;21.46;60.52;98726.94;4964850;28;20058;-92
2023/07/30 06:30:05;;;;;;;16.70;5.37;;;;;;;21.08;60.05;98690.41;4946109;28;20293;-92
2023/07/30 06:32:31;;;;;;;13.95;4.63;;;;;;;21.26;59.82;98730.13;4951777;28;20853;-91
2023/07/30 06:34:59;;;;;;;10.93;4.57;;;;;;;21.50;59.91;98722.16;4944796;28;20099;-91
2023/07/30 06:37:25;;;;;;;18.60;5.28;;;;;;;21.35;60.14;98705.50;4924996;28;20054;-90
2023/07/30 06:39:51;;;;;;;12.70;5.10;;;;;;;21.51;60.77;98693.16;4984019;28;20047;-89
2023/07/30 06:42:17;;;;;;;12.75;4.60;;;;;;;21.74;59.56;98703.81;4964589;28;20074;-91
2023/07/30 06:44:43;;;;;;;11.48;5.28;;;;;;;21.66;59.43;98691.13;4963116;28;20113;-91
2023/07/30 06:47:09;;;;;;;9.93;4.70;;;;;;;21.81;59.59;98693.44;4956230;28;20593;-89
2023/07/30 06:49:35;;;;;;;10.47;4.10;;;;;;;22.06;59.13;98698.13;4973111;28;20326;-91
2023/07/30 06:52:01;;;;;;;19.08;4.65;;;;;;;22.29;58.80;98717.13;4970655;28;20041;-90
2023/07/30 06:54:29;;;;;;;10.40;4.13;;;;;;;22.38;58.41;98713.88;4961025;28;20069;-90
2023/07/30 06:56:55;;;;;;;16.42;4.60;;;;;;;22.03;57.90;98702.50;4945104;28;20050;-90
2023/07/30 06:59:21;;;;;;;7.23;3.60;;;;;;;22.03;58.81;98693.34;4946284;28;20118;-90
2023/07/30 07:01:47;;;;;;;17.33;4.83;;;;;;;22.19;58.58;98707.63;4977037;28;20300;-89
2023/07/30 07:04:14;;;;;;;11.73;4.18;;;;;;;22.03;58.65;98688.56;4977899;28;20042;-91
2023/07/30 07:06:40;;;;;;;17.17;4.60;;;;;;;22.09;58.62;98694.53;4976403;28;20049;-90
2023/07/30 07:09:06;;;;;;;8.67;4.10;;;;;;;22.07;58.27;98708.03;4928404;28;20042;-88
2023/07/30 07:11:32;;;;;;;18.23;4.43;;;;;;;22.03;57.00;98663.53;4972001;28;20047;-87
2023/07/30 07:13:58;;;;;;;11.63;3.80;;;;;;;22.18;57.68;98703.22;4972526;28;20042;-88
2023/07/30 07:16:24;;;;;;;10.50;3.87;;;;;;;22.33;56.60;98689.25;4955172;28;20810;-87
2023/07/30 07:18:50;;;;;;;17.40;3.90;;;;;;;22.54;57.30;98689.09;4939802;28;20184;-86
2023/07/30 07:21:16;;;;;;;6.13;3.45;;;;;;;22.75;57.23;98688.94;4970352;28;20399;-89
2023/07/30 07:23:42;;;;;;;8.35;3.80;;;;;;;22.93;56.07;98693.59;4976476;28;20054;-89
2023/07/30 07:26:08;;;;;;;8.65;3.67;;;;;;;23.04;54.71;98685.94;4993298;28;20050;-89
2023/07/30 07:28:34;;;;;;;4.90;3.35;;;;;;;23.03;55.63;98675.19;4979222;28;20057;-87
2023/07/30 07:31:01;;;;;;;8.88;3.50;;;;;;;23.10;54.88;98701.00;4986862;28;20140;-89
2023/07/30 07:33:27;;;;;;;;;;;;;;;23.11;55.07;98704.59;4973977;28;20042;-88
2023/07/30 07:36:05;;;;;;;20.45;4.60;;;;;;;22.89;54.05;98679.66;5003786;28;19928;-88
2023/07/30 07:38:32;;;;;;;14.40;3.92;;;;;;;22.79;55.38;98690.91;5005291;28;20046;-89
2023/07/30 07:40:58;;;;;;;8.90;3.63;;;;;;;22.54;56.42;98682.72;4955499;28;20069;-88
2023/07/30 07:43:24;;;;;;;12.35;4.22;;;;;;;22.55;55.96;98682.34;4938165;28;20432;-87
2023/07/30 07:45:50;;;;;;;8.85;4.03;;;;;;;22.52;55.66;98692.31;4954165;28;20053;-90
2023/07/30 07:48:16;;;;;;;11.85;4.10;;;;;;;22.37;55.89;98687.22;4977543;28;20038;-88
2023/07/30 07:50:42;;;;;;;16.38;4.57;;;;;;;22.51;55.60;98684.34;4964121;28;20062;-88
2023/07/30 07:53:08;;;;;;;12.82;3.88;;;;;;;22.82;53.79;98701.25;4960944;28;20042;-89
2023/07/30 07:55:34;;;;;;;8.43;3.70;;;;;;;22.89;56.38;98681.66;4979437;28;20039;-88
2023/07/30 07:58:00;;;;;;;13.32;4.78;;;;;;;23.15;55.45;98677.47;4945853;28;20307;-88
2023/07/30 08:00:26;;;;;;;15.43;5.75;;;;;;;22.91;53.03;98699.56;4995645;28;20121;-89
2023/07/30 08:02:52;;;;;;;9.00;3.53;;;;;;;22.50;56.07;98679.97;4979881;28;20045;-89
2023/07/30 08:05:19;;;;;;;7.57;4.10;;;;;;;22.67;54.39;98679.03;4979044;28;20046;-89
2023/07/30 08:07:48;;;;;;;6.38;3.53;;;;;;;22.86;55.08;98680.50;4998325;28;20821;-89
2023/07/30 08:10:17;;;;;;;16.67;4.40;;;;;;;22.85;51.43;98709.56;4997590;28;20037;-87
2023/07/30 08:12:44;;;;;;;18.20;5.20;;;;;;;22.55;55.48;98668.41;4964504;28;20070;-90
2023/07/30 08:15:10;;;;;;;19.42;4.60;;;;;;;22.57;53.39;98705.00;4945444;28;20488;-88
2023/07/30 08:17:36;;;;;;;8.88;4.10;;;;;;;22.56;54.11;98686.69;4953726;29;20047;-88
2023/07/30 08:20:02;;;;;;;14.67;4.53;;;;;;;22.56;53.65;98691.47;4941163;29;20106;-91
2023/07/30 08:22:29;;;;;;;21.85;4.63;;;;;;;22.39;54.83;98682.84;4927073;29;20291;-89
2023/07/30 08:24:55;;;;;;;9.50;4.87;;;;;;;22.38;54.17;98681.22;4939468;29;20082;-89
2023/07/30 08:27:21;;;;;;;23.17;5.68;;;;;;;22.54;56.25;98685.53;4955937;29;20051;-87
2023/07/30 08:29:48;;;;;;;8.10;4.18;;;;;;;22.59;53.15;98697.03;4918565;29;20056;-88
2023/07/30 08:38:00;;;;;;;14.57;4.78;;;;;;;23.41;53.26;98706.69;4936027;29;20055;-86
2023/07/30 08:40:26;;;;;;;10.27;3.55;;;;;;;23.55;52.68;98698.19;4919288;29;20048;-87
2023/07/30 08:42:54;;;;;;;22.73;4.65;;;;;;;23.78;51.44;98696.75;4924788;29;20146;-87
2023/07/30 08:45:20;;;;;;;14.60;4.63;;;;;;;23.80;50.38;98705.50;4922299;29;20054;-87
2023/07/30 08:47:47;;;;;;;9.70;3.88;;;;;;;23.96;51.29;98674.97;4952221;29;20055;-87
2023/07/30 08:50:13;;;;;;;9.65;3.47;;;;;;;23.97;49.03;98684.13;4938483;29;20051;-88
2023/07/30 08:52:40;;;;;;;;;;;;;;;24.44;49.85;98706.69;4927380;29;20090;-90
2023/07/30 08:55:07;;;;;;;12.80;4.90;;;;;;;23.78;47.20;98657.69;4964716;28;19963;-89
2023/07/30 08:57:33;;;;;;;13.63;4.20;;;;;;;23.58;48.42;98694.56;4980302;28;20389;-90
2023/07/30 09:00:08;;;;;;;11.30;4.35;;;;;;;23.53;49.76;98672.69;5000816;28;20400;-89
2023/07/30 09:02:48;;;;;;;14.05;4.32;;;;;;;23.53;50.44;98674.69;4938531;29;20043;-88
2023/07/30 09:05:14;;;;;;;7.53;3.75;;;;;;;23.85;51.56;98669.53;4917291;28;20837;-87
2023/07/30 09:07:41;;;;;;;8.73;3.85;;;;;;;23.94;48.40;98690.56;4950363;28;20039;-86
2023/07/30 09:10:08;;;;;;;14.90;4.10;;;;;;;23.92;50.25;98674.25;4948475;28;20046;-86
2023/07/30 09:12:35;;;;;;;12.77;3.70;;;;;;;24.24;48.17;98703.72;4932524;29;20195;-87
2023/07/30 09:15:06;;;;;;;13.80;3.97;;;;;;;24.28;50.99;98701.69;4908711;29;20031;-85
2023/07/30 09:17:33;;;;;;;11.27;3.97;;;;;;;24.43;48.08;98702.28;4934533;29;20051;-85
2023/07/30 09:20:03;;;;;;;12.88;4.05;;;;;;;24.48;48.38;98707.41;4934155;29;20047;-87
2023/07/30 09:22:33;;;;;;;7.40;3.85;;;;;;;24.24;50.68;98700.94;4951336;28;20066;-87
2023/07/30 09:25:02;;;;;;;21.52;3.90;;;;;;;24.21;50.97;98694.19;4920848;29;20035;-87
2023/07/30 09:27:29;;;;;;;14.20;4.28;;;;;;;24.10;48.98;98685.16;4913028;29;20548;-87
2023/07/30 09:29:57;;;;;;;12.23;4.28;;;;;;;24.19;51.29;98716.16;4934464;29;20039;-87
2023/07/30 09:32:32;;;;;;;8.45;3.88;;;;;;;24.14;50.66;98691.50;4935463;29;20040;-88
2023/07/30 09:35:12;;;;;;;23.45;4.53;;;;;;;24.22;48.68;98698.56;4925909;29;20238;-88
2023/07/30 09:37:40;;;;;;;11.07;4.05;;;;;;;24.01;48.05;98682.13;4933354;29;20146;-88
2023/07/30 09:40:12;;;;;;;12.77;3.92;;;;;;;24.31;50.81;98704.44;4932358;29;20047;-86
2023/07/30 09:42:44;;;;;;;9.55;4.03;;;;;;;24.31;50.77;98698.06;4936207;29;20079;-88
2023/07/30 09:45:24;;;;;;;9.60;3.55;;;;;;;24.38;50.61;98678.41;4949009;29;20090;-88
2023/07/30 09:47:53;;;;;;;11.82;4.00;;;;;;;24.46;49.90;98704.25;4933520;29;20047;-89
2023/07/30 09:50:19;;;;;;;24.05;4.13;;;;;;;24.24;49.05;98692.53;4952322;29;20082;-90
2023/07/30 09:52:45;;;;;;;10.70;4.70;;;;;;;24.19;48.65;98681.88;4972721;28;20586;-89
2023/07/30 09:55:12;;;;;;;11.65;3.80;;;;;;;24.24;49.32;98668.22;4963428;28;20034;-90
2023/07/30 09:57:39;;;;;;;7.82;3.25;;;;;;;24.48;47.92;98663.50;4975346;28;20046;-88
2023/07/30 10:00:08;;;;;;;6.25;3.63;;;;;;;25.04;47.59;98685.34;4993021;28;20468;-88
2023/07/30 10:02:40;;;;;;;6.90;3.50;;;;;;;25.17;46.93;98713.53;4985318;28;20042;-89
2023/07/30 10:05:16;;;;;;;14.05;3.78;;;;;;;24.90;45.57;98666.81;4978513;28;20042;-90
2023/07/30 10:08:04;;;;;;;24.83;4.35;;;;;;;24.64;45.69;98693.59;4965439;28;20030;-90
2023/07/30 10:10:31;;;;;;;7.35;3.40;;;;;;;24.56;48.43;98695.69;4942604;28;20038;-91
2023/07/30 10:13:01;;;;;;;5.10;3.42;;;;;;;24.71;46.92;98687.09;4958925;28;20034;-90
2023/07/30 10:15:31;;;;;;;9.75;3.42;;;;;;;24.58;45.41;98698.88;4996935;28;20042;-91
2023/07/30 10:18:01;;;;;;;10.15;3.53;;;;;;;24.55;44.60;98696.91;5000767;28;20054;-90
2023/07/30 10:20:29;;;;;;;12.65;3.47;;;;;;;24.13;45.38;98676.72;4959755;28;20053;-91
2023/07/30 10:22:57;;;;;;;6.18;3.13;;;;;;;24.14;45.81;98697.09;4965209;28;20101;-92
2023/07/30 10:25:42;;;;;;;10.13;3.53;;;;;;;24.13;46.45;98713.03;4970112;28;20200;-88
2023/07/30 10:28:09;;;;;;;6.50;3.33;;;;;;;23.74;46.33;98698.78;4972766;28;20121;-90
2023/07/30 10:30:35;;;;;;;10.70;3.15;;;;;;;23.78;46.64;98725.44;4959939;28;20280;-89
2023/07/30 10:33:13;;;;;;;10.70;3.70;;;;;;;23.62;46.37;98722.41;4970958;28;20055;-89
2023/07/30 10:35:46;;;;;;;16.60;4.30;;;;;;;23.50;47.13;98681.88;4972409;28;20066;-91
2023/07/30 10:38:28;;;;;;;8.63;3.50;;;;;;;23.35;46.73;98658.16;4978363;28;20116;-90
2023/07/30 10:41:10;;;;;;;7.18;3.47;;;;;;;23.66;47.10;98684.88;4995182;28;20034;-90
2023/07/30 10:43:41;;;;;;;14.82;4.25;;;;;;;23.69;48.15;98700.03;4966639;28;20042;-89
2023/07/30 10:46:09;;;;;;;7.70;3.30;;;;;;;23.65;46.85;98716.78;4999998;28;20042;-90
2023/07/30 10:48:38;;;;;;;7.30;3.55;;;;;;;22.86;47.29;98657.41;4991266;28;20085;-91
2023/07/30 10:51:10;;;;;;;11.75;3.17;;;;;;;22.80;48.88;98668.19;4962928;28;20689;-88
2023/07/30 10:53:36;;;;;;;9.60;3.53;;;;;;;22.88;49.31;98708.75;4961652;28;20042;-91
2023/07/30 10:56:05;;;;;;;10.90;3.35;;;;;;;22.63;48.91;98688.63;4956438;28;20440;-90
2023/07/30 10:58:32;;;;;;;7.25;3.72;;;;;;;23.24;48.31;98724.38;4939809;28;20489;-88
2023/07/30 11:00:58;;;;;;;7.63;3.25;;;;;;;23.23;48.44;98690.13;4941995;28;20420;-90
2023/07/30 11:03:28;;;;;;;11.30;3.42;;;;;;;23.58;47.09;98714.09;4964374;28;21415;-94
2023/07/30 11:05:55;;;;;;;5.32;3.40;;;;;;;23.51;45.54;98694.63;4968865;28;20100;-90
2023/07/30 11:08:41;;;;;;;11.05;3.28;;;;;;;23.71;45.13;98710.78;4963428;28;20038;-91
2023/07/30 11:11:11;;;;;;;9.30;3.15;;;;;;;23.27;44.98;98692.88;4944229;28;20133;-89
2023/07/30 11:13:43;;;;;;;13.05;4.00;;;;;;;23.40;47.30;98708.69;4937326;28;20130;-90
2023/07/30 11:16:10;;;;;;;13.15;3.95;;;;;;;23.45;48.55;98707.44;4957953;28;20042;-92
2023/07/30 11:18:37;;;;;;;12.48;3.78;;;;;;;23.47;48.33;98727.34;4975159;28;20043;-91
2023/07/30 11:21:08;;;;;;;16.02;3.35;;;;;;;23.63;47.65;98732.34;4955611;28;20058;-91
2023/07/30 11:23:39;;;;;;;8.63;3.67;;;;;;;23.35;46.64;98667.31;4965002;28;20137;-91
2023/07/30 11:26:08;;;;;;;11.75;3.90;;;;;;;23.89;44.43;98730.91;4958404;28;20086;-90
2023/07/30 11:28:39;;;;;;;7.15;3.40;;;;;;;23.45;43.79;98660.81;4946716;28;20137;-91
2023/07/30 11:31:06;;;;;;;11.20;3.35;;;;;;;23.57;45.21;98676.22;4962498;28;20420;-89
2023/07/30 11:33:33;;;;;;;9.60;3.35;;;;;;;24.25;47.45;98724.88;4980078;28;20466;-90